createdAt,value
2023-05-24T00:00:27.126Z,101946.44
2023-05-24T00:02:55.168Z,101943.63
2023-05-24T00:05:23.739Z,101938.50
2023-05-24T00:07:51.329Z,101939.84
2023-05-24T00:10:18.892Z,101934.56
2023-05-24T00:12:46.438Z,101933.72
2023-05-24T00:15:13.979Z,101934.50
2023-05-24T00:17:42.890Z,101925.97
2023-05-24T00:20:12.105Z,101926.13
2023-05-24T00:22:40.151Z,101919.03
2023-05-24T00:25:08.224Z,101927.69
2023-05-24T00:27:37.392Z,101919.66
2023-05-24T00:30:06.394Z,101924.13
2023-05-24T00:32:34.241Z,101926.59
2023-05-24T00:35:01.803Z,101917.84
2023-05-24T00:37:29.777Z,101916.53
2023-05-24T00:39:57.407Z,101918.28
2023-05-24T00:42:25.026Z,101912.81
2023-05-24T00:44:52.479Z,101905.34
2023-05-24T00:47:20.244Z,101900.97
2023-05-24T00:49:47.723Z,101903.44
2023-05-24T00:52:15.724Z,101897.53
2023-05-24T00:54:44.214Z,101899.09
2023-05-24T00:57:14.157Z,101904.13
2023-05-24T00:59:43.001Z,101900.59
2023-05-24T01:02:10.676Z,101897.81
2023-05-24T01:04:38.407Z,101900.16
2023-05-24T01:07:26.965Z,101903.53
2023-05-24T01:10:13.529Z,101892.34
2023-05-24T01:12:51.065Z,101892.25
2023-05-24T01:15:28.622Z,101900.91
2023-05-24T01:18:14.238Z,101897.78
2023-05-24T01:20:43.478Z,101904.69
2023-05-24T01:24:10.064Z,101896.56
2023-05-24T01:26:48.960Z,101889.34
2023-05-24T01:29:16.973Z,101898.78
2023-05-24T01:31:44.843Z,101898.84
2023-05-24T01:34:12.546Z,101895.97
2023-05-24T01:36:40.844Z,101890.59
2023-05-24T01:39:08.466Z,101899.44
2023-05-24T01:41:52.307Z,101891.34
2023-05-24T01:44:38.202Z,101899.19
2023-05-24T01:47:24.793Z,101902.47
2023-05-24T01:49:57.511Z,101894.75
2023-05-24T01:52:31.885Z,101906.81
2023-05-24T01:55:01.299Z,101905.09
2023-05-24T01:57:30.030Z,101906.72
2023-05-24T01:59:59.626Z,101902.97
2023-05-24T02:02:27.438Z,101905.69
2023-05-24T02:04:55.123Z,101907.66
2023-05-24T02:07:22.764Z,101912.09
2023-05-24T02:09:50.527Z,101905.78
2023-05-24T02:12:18.021Z,101905.78
2023-05-24T02:14:45.581Z,101906.47
2023-05-24T02:17:13.081Z,101905.50
2023-05-24T02:19:41.243Z,101917.59
2023-05-24T02:22:09.308Z,101922.75
2023-05-24T02:24:37.956Z,101916.25
2023-05-24T02:27:05.653Z,101917.09
2023-05-24T02:29:33.227Z,101921.63
2023-05-24T02:32:00.750Z,101917.03
2023-05-24T02:34:28.320Z,101917.63
2023-05-24T02:36:56.030Z,101918.69
2023-05-24T02:39:23.462Z,101918.69
2023-05-24T02:41:50.762Z,101924.41
2023-05-24T02:44:18.137Z,101920.22
2023-05-24T02:46:45.913Z,101934.13
2023-05-24T02:49:13.902Z,101932.53
2023-05-24T02:51:41.425Z,101927.34
2023-05-24T02:54:08.989Z,101924.59
2023-05-24T02:56:37.603Z,101928.56
2023-05-24T02:59:05.194Z,101927.47
2023-05-24T03:01:34.562Z,101917.16
2023-05-24T03:04:03.551Z,101925.06
2023-05-24T03:06:31.542Z,101927.69
2023-05-24T03:08:59.390Z,101932.94
2023-05-24T03:11:27.329Z,101932.84
2023-05-24T03:13:54.801Z,101923.06
2023-05-24T03:16:22.270Z,101937.91
2023-05-24T03:18:55.425Z,101924.88
2023-05-24T03:21:23.609Z,101930.94
2023-05-24T03:23:51.213Z,101930.84
2023-05-24T03:26:19.200Z,101918.56
2023-05-24T03:28:47.729Z,101917.50
2023-05-24T03:31:15.489Z,101916.22
2023-05-24T03:33:42.941Z,101911.59
2023-05-24T03:36:10.546Z,101922.06
2023-05-24T03:38:38.542Z,101914.97
2023-05-24T03:41:06.541Z,101922.16
2023-05-24T03:43:34.948Z,101918.78
2023-05-24T03:46:06.225Z,101914.28
2023-05-24T03:48:33.748Z,101915.22
2023-05-24T03:51:01.022Z,101914.34
2023-05-24T03:53:28.536Z,101915.78
2023-05-24T03:55:56.191Z,101912.25
2023-05-24T03:58:23.733Z,101915.81
2023-05-24T04:00:51.739Z,101912.84
2023-05-24T04:05:48.095Z,101914.94
2023-05-24T04:08:16.562Z,101917.44
2023-05-24T04:10:44.446Z,101921.00
2023-05-24T04:13:12.862Z,101922.53
2023-05-24T04:15:40.728Z,101930.22
2023-05-24T04:18:08.288Z,101926.06
2023-05-24T04:20:36.047Z,101933.31
2023-05-24T04:23:03.871Z,101926.47
2023-05-24T04:25:33.508Z,101926.25
2023-05-24T04:28:04.031Z,101931.72
2023-05-24T04:30:33.149Z,101933.47
2023-05-24T04:33:00.792Z,101936.09
2023-05-24T04:35:30.363Z,101936.47
2023-05-24T04:37:59.843Z,101929.41
2023-05-24T04:40:27.341Z,101922.53
2023-05-24T04:42:54.643Z,101937.69
2023-05-24T04:45:22.137Z,101940.28
2023-05-24T04:47:49.777Z,101928.41
2023-05-24T04:50:17.549Z,101932.84
2023-05-24T04:52:45.172Z,101935.75
2023-05-24T04:55:12.752Z,101921.28
2023-05-24T04:57:40.152Z,101936.22
2023-05-24T05:00:08.264Z,101915.22
2023-05-24T05:02:36.163Z,101928.75
2023-05-24T05:05:03.929Z,101925.41
2023-05-24T05:07:31.337Z,101922.13
2023-05-24T05:09:58.849Z,101921.34
2023-05-24T05:12:26.188Z,101932.81
2023-05-24T05:14:53.663Z,101922.38
2023-05-24T05:17:21.896Z,101936.38
2023-05-24T05:19:49.709Z,101927.72
2023-05-24T05:22:17.527Z,101932.28
2023-05-24T05:24:45.078Z,101917.78
2023-05-24T05:27:12.530Z,101921.69
2023-05-24T05:29:40.107Z,101940.13
2023-05-24T05:32:07.636Z,101930.06
2023-05-24T05:34:35.972Z,101939.00
2023-05-24T05:37:03.387Z,101930.81
2023-05-24T05:39:32.079Z,101934.56
2023-05-24T05:42:00.162Z,101939.16
2023-05-24T05:44:27.955Z,101937.41
2023-05-24T05:46:55.977Z,101942.19
2023-05-24T05:49:23.648Z,101947.28
2023-05-24T05:51:53.042Z,101954.06
2023-05-24T05:54:20.748Z,101949.19
2023-05-24T05:56:48.337Z,101957.66
2023-05-24T05:59:16.139Z,101953.09
2023-05-24T06:01:47.181Z,101950.91
2023-05-24T06:04:18.315Z,101945.03
2023-05-24T06:06:49.607Z,101951.72
2023-05-24T06:09:17.576Z,101948.38
2023-05-24T06:11:45.206Z,101950.47
2023-05-24T06:14:20.003Z,101955.28
2023-05-24T06:16:48.262Z,101948.47
2023-05-24T06:19:16.745Z,101946.50
2023-05-24T06:21:50.213Z,101933.31
2023-05-24T06:24:22.329Z,101942.22
2023-05-24T06:26:52.965Z,101944.03
2023-05-24T06:29:21.966Z,101941.22
2023-05-24T06:31:49.939Z,101943.63
2023-05-24T06:34:21.400Z,101941.75
2023-05-24T06:36:51.316Z,101938.59
2023-05-24T06:39:19.404Z,101958.72
2023-05-24T06:41:47.464Z,101946.41
2023-05-24T06:44:16.459Z,101938.91
2023-05-24T06:46:44.328Z,101942.13
2023-05-24T06:49:12.495Z,101942.34
2023-05-24T06:51:40.253Z,101942.44
2023-05-24T06:54:08.041Z,101953.16
2023-05-24T06:56:35.772Z,101959.53
2023-05-24T06:59:03.193Z,101958.81
2023-05-24T07:01:30.745Z,101976.91
2023-05-24T07:03:58.271Z,101973.94
2023-05-24T07:06:25.866Z,101966.19
2023-05-24T07:08:53.450Z,101965.59
2023-05-24T07:11:21.147Z,101968.44
2023-05-24T07:13:48.572Z,101969.53
2023-05-24T07:16:16.172Z,101970.47
2023-05-24T07:18:43.685Z,101981.09
2023-05-24T07:21:11.190Z,101981.97
2023-05-24T07:23:38.658Z,101990.75
2023-05-24T07:26:06.232Z,101976.69
2023-05-24T07:28:34.572Z,101979.31
2023-05-24T07:31:02.681Z,101990.78
2023-05-24T07:33:30.299Z,101993.44
2023-05-24T07:35:58.797Z,101995.22
2023-05-24T07:38:34.002Z,101993.44
2023-05-24T07:43:51.211Z,101992.34
2023-05-24T07:46:21.758Z,101989.44
2023-05-24T07:48:51.829Z,102002.03
2023-05-24T07:51:19.476Z,101993.19
2023-05-24T07:53:47.372Z,102000.94
2023-05-24T07:56:15.287Z,101999.72
2023-05-24T07:58:45.693Z,102009.47
2023-05-24T08:01:13.408Z,102011.41
2023-05-24T08:03:41.127Z,102007.63
2023-05-24T08:06:10.123Z,102002.84
2023-05-24T08:08:37.679Z,102005.78
2023-05-24T08:11:05.248Z,102009.41
2023-05-24T08:13:32.756Z,102004.13
2023-05-24T08:16:00.254Z,102009.31
2023-05-24T08:18:27.945Z,102008.06
2023-05-24T08:20:55.356Z,102016.06
2023-05-24T08:23:23.013Z,102013.56
2023-05-24T08:25:50.680Z,102004.69
2023-05-24T08:28:18.430Z,102008.91
2023-05-24T08:30:46.007Z,101998.22
2023-05-24T08:33:14.281Z,102002.97
2023-05-24T08:35:41.925Z,101997.75
2023-05-24T08:38:09.976Z,102003.75
2023-05-24T08:40:37.569Z,102006.78
2023-05-24T08:43:11.918Z,101999.53
2023-05-24T08:45:40.131Z,101996.59
2023-05-24T08:48:08.570Z,101996.31
2023-05-24T08:50:36.360Z,101997.66
2023-05-24T08:53:07.203Z,101992.59
2023-05-24T08:55:38.570Z,101994.56
2023-05-24T08:58:06.895Z,101997.03
2023-05-24T09:00:34.367Z,101989.19
2023-05-24T09:03:02.182Z,101996.03
2023-05-24T09:05:30.387Z,101990.19
2023-05-24T09:08:01.127Z,101994.34
2023-05-24T09:10:38.000Z,101988.59
2023-05-24T09:13:16.032Z,101993.63
2023-05-24T09:15:46.769Z,101988.72
2023-05-24T09:18:14.438Z,101979.38
2023-05-24T09:20:42.295Z,101989.69
2023-05-24T09:23:11.251Z,101982.63
2023-05-24T09:25:48.074Z,101975.88
2023-05-24T09:28:17.827Z,101973.91
2023-05-24T09:30:57.498Z,101976.88
2023-05-24T09:33:30.661Z,101981.19
2023-05-24T09:36:00.140Z,101995.28
2023-05-24T09:38:28.335Z,101985.44
2023-05-24T09:41:06.874Z,101993.19
2023-05-24T09:43:46.831Z,101980.28
2023-05-24T09:46:21.792Z,101983.72
2023-05-24T09:49:11.027Z,101981.41
2023-05-24T09:51:39.300Z,101984.66
2023-05-24T09:54:06.915Z,101986.72
2023-05-24T09:56:35.255Z,101982.03
2023-05-24T09:59:10.032Z,101968.19
2023-05-24T10:01:37.837Z,101971.69
2023-05-24T10:04:10.216Z,101967.22
2023-05-24T10:06:43.119Z,101968.84
2023-05-24T10:09:11.596Z,101979.22
2023-05-24T10:11:40.096Z,101970.47
2023-05-24T10:14:09.984Z,101964.56
2023-05-24T10:16:40.242Z,101970.22
2023-05-24T10:19:07.805Z,101966.41
2023-05-24T10:21:38.985Z,101965.22
2023-05-24T10:24:10.039Z,101966.53
2023-05-24T10:26:39.740Z,101956.66
2023-05-24T10:29:13.648Z,101960.81
2023-05-24T10:31:42.810Z,101973.47
2023-05-24T10:34:10.867Z,101957.50
2023-05-24T10:36:40.683Z,101970.56
2023-05-24T10:39:11.410Z,101962.47
2023-05-24T10:41:41.189Z,101973.22
2023-05-24T10:44:16.417Z,101975.28
2023-05-24T10:47:03.741Z,101969.06
2023-05-24T10:49:31.507Z,101951.38
2023-05-24T10:52:06.955Z,101964.84
2023-05-24T10:54:36.023Z,101953.09
2023-05-24T10:57:04.870Z,101955.59
2023-05-24T10:59:38.077Z,101955.50
2023-05-24T11:02:15.185Z,101958.66
2023-05-24T11:04:46.583Z,101955.81
2023-05-24T11:07:15.853Z,101960.19
2023-05-24T11:09:46.935Z,101952.91
2023-05-24T11:12:19.251Z,101950.16
2023-05-24T11:14:52.452Z,101948.78
2023-05-24T11:17:23.997Z,101979.88
2023-05-24T11:19:53.918Z,101956.44
2023-05-24T11:22:23.568Z,101949.91
2023-05-24T11:24:53.340Z,101968.41
2023-05-24T11:27:21.047Z,101964.06
2023-05-24T11:29:49.252Z,101944.91
2023-05-24T11:32:20.336Z,101951.00
2023-05-24T11:34:49.156Z,101951.56
2023-05-24T11:37:18.297Z,101936.50
2023-05-24T11:39:52.994Z,101941.56
2023-05-24T11:42:22.780Z,101942.94
2023-05-24T11:44:50.660Z,101935.88
2023-05-24T11:47:20.972Z,101965.34
2023-05-24T11:49:52.167Z,101929.22
2023-05-24T11:52:20.134Z,101925.56
2023-05-24T11:54:48.605Z,101931.56
2023-05-24T11:57:19.441Z,101924.28
2023-05-24T11:59:47.049Z,101932.75
2023-05-24T12:02:14.659Z,101915.94
2023-05-24T12:04:42.208Z,101896.50
2023-05-24T12:07:12.934Z,101907.97
2023-05-24T12:09:40.531Z,101896.31
2023-05-24T12:12:08.229Z,101891.66
2023-05-24T12:14:36.379Z,101901.63
2023-05-24T12:17:03.858Z,101889.44
2023-05-24T12:19:35.286Z,101890.91
2023-05-24T12:22:08.044Z,101892.88
2023-05-24T12:24:37.648Z,101879.63
2023-05-24T12:27:09.255Z,101890.91
2023-05-24T12:29:40.066Z,101912.88
2023-05-24T12:32:13.661Z,101900.00
2023-05-24T12:34:43.267Z,101883.00
2023-05-24T12:37:13.197Z,101879.13
2023-05-24T12:39:43.948Z,101902.72
2023-05-24T12:42:15.279Z,101874.22
2023-05-24T12:44:43.109Z,101864.94
2023-05-24T12:47:10.942Z,101863.78
2023-05-24T12:49:39.114Z,101870.16
2023-05-24T12:52:06.896Z,101869.78
2023-05-24T12:54:34.762Z,101862.78
2023-05-24T12:57:05.215Z,101911.47
2023-05-24T12:59:33.880Z,101869.00
2023-05-24T13:02:02.294Z,101869.25
2023-05-24T13:04:31.890Z,101852.97
2023-05-24T13:07:00.480Z,101868.41
2023-05-24T13:09:28.256Z,101865.50
2023-05-24T13:11:55.760Z,101879.19
2023-05-24T13:14:23.484Z,101855.09
2023-05-24T13:16:51.499Z,101873.78
2023-05-24T13:19:19.168Z,101870.91
2023-05-24T13:21:46.722Z,101850.44
2023-05-24T13:24:17.534Z,101854.19
2023-05-24T13:26:46.343Z,101856.34
2023-05-24T13:31:45.017Z,101855.84
2023-05-24T13:34:12.918Z,101847.22
2023-05-24T13:36:40.616Z,101855.94
2023-05-24T13:39:15.509Z,101839.19
2023-05-24T13:41:45.032Z,101846.13
2023-05-24T13:44:13.737Z,101839.88
2023-05-24T13:46:41.997Z,101839.75
2023-05-24T13:49:11.039Z,101851.59
2023-05-24T13:51:39.325Z,101830.41
2023-05-24T13:54:07.880Z,101830.16
2023-05-24T13:56:36.668Z,101833.50
2023-05-24T13:59:05.468Z,101824.88
2023-05-24T14:01:34.302Z,101825.06
2023-05-24T14:04:04.018Z,101826.88
2023-05-24T14:06:32.933Z,101841.81
2023-05-24T14:09:01.029Z,101845.06
2023-05-24T14:11:31.758Z,101824.66
2023-05-24T14:16:30.764Z,101822.13
2023-05-24T14:18:58.371Z,101824.03
2023-05-24T14:21:27.205Z,101828.25
2023-05-24T14:23:55.115Z,101821.28
2023-05-24T14:26:24.009Z,101825.97
2023-05-24T14:28:54.380Z,101830.75
2023-05-24T14:31:23.116Z,101828.91
2023-05-24T14:33:50.904Z,101815.53
2023-05-24T14:36:18.565Z,101813.53
2023-05-24T14:38:46.752Z,101823.28
2023-05-24T14:41:15.579Z,101812.63
2023-05-24T14:43:43.080Z,101805.94
2023-05-24T14:46:10.768Z,101821.00
2023-05-24T14:48:41.451Z,101810.09
2023-05-24T14:51:09.306Z,101812.75
2023-05-24T14:53:36.987Z,101808.22
2023-05-24T14:56:06.373Z,101809.91
2023-05-24T14:58:34.127Z,101791.00
2023-05-24T15:01:02.953Z,101807.00
2023-05-24T15:03:30.592Z,101792.13
2023-05-24T15:05:58.499Z,101817.94
2023-05-24T15:08:26.226Z,101801.91
2023-05-24T15:10:53.853Z,101801.66
2023-05-24T15:13:23.093Z,101804.03
2023-05-24T15:15:50.591Z,101804.09
2023-05-24T15:18:18.061Z,101799.63
2023-05-24T15:20:45.861Z,101806.69
2023-05-24T15:23:13.579Z,101803.28
2023-05-24T15:25:42.890Z,101803.25
2023-05-24T15:28:12.951Z,101795.09
2023-05-24T15:30:44.567Z,101794.25
2023-05-24T15:33:13.430Z,101806.59
2023-05-24T15:35:41.546Z,101817.44
2023-05-24T15:38:09.121Z,101795.50
2023-05-24T15:40:38.576Z,101803.34
2023-05-24T15:43:06.758Z,101798.84
2023-05-24T15:45:34.282Z,101796.38
2023-05-24T15:48:04.623Z,101789.25
2023-05-24T15:50:54.047Z,101797.19
2023-05-24T15:53:23.019Z,101795.25
2023-05-24T15:55:50.414Z,101787.31
2023-05-24T15:58:18.520Z,101791.72
2023-05-24T16:00:46.214Z,101783.72
2023-05-24T16:03:15.911Z,101796.94
2023-05-24T16:05:43.867Z,101781.00
2023-05-24T16:08:11.495Z,101772.00
2023-05-24T16:10:38.966Z,101784.28
2023-05-24T16:13:06.748Z,101787.97
2023-05-24T16:15:36.135Z,101775.75
2023-05-24T16:18:10.738Z,101780.09
2023-05-24T16:20:38.653Z,101770.41
2023-05-24T16:23:06.214Z,101773.97
2023-05-24T16:25:33.688Z,101769.53
2023-05-24T16:28:01.247Z,101778.75
2023-05-24T16:30:29.267Z,101783.09
2023-05-24T16:32:56.993Z,101780.63
2023-05-24T16:35:24.888Z,101777.13
2023-05-24T16:37:52.343Z,101778.19
2023-05-24T16:40:19.943Z,101772.91
2023-05-24T16:42:48.480Z,101771.22
2023-05-24T16:45:16.249Z,101761.78
2023-05-24T16:47:43.838Z,101774.97
2023-05-24T16:50:15.150Z,101760.78
2023-05-24T16:52:43.173Z,101769.63
2023-05-24T16:55:16.070Z,101780.28
2023-05-24T16:57:43.544Z,101775.16
2023-05-24T17:00:11.774Z,101767.25
2023-05-24T17:02:39.398Z,101772.53
2023-05-24T17:05:07.322Z,101764.59
2023-05-24T17:07:34.980Z,101775.22
2023-05-24T17:10:02.575Z,101766.63
2023-05-24T17:12:30.257Z,101758.59
2023-05-24T17:14:57.717Z,101770.97
2023-05-24T17:17:25.373Z,101777.94
2023-05-24T17:19:53.168Z,101777.06
2023-05-24T17:22:21.469Z,101785.31
2023-05-24T17:24:49.023Z,101766.84
2023-05-24T17:27:19.880Z,101770.34
2023-05-24T17:29:49.615Z,101769.47
2023-05-24T17:32:17.173Z,101767.72
2023-05-24T17:34:44.656Z,101769.41
2023-05-24T17:37:12.093Z,101756.13
2023-05-24T17:39:39.673Z,101770.34
2023-05-24T17:42:07.464Z,101765.13
2023-05-24T17:44:35.257Z,101766.00
2023-05-24T17:47:02.768Z,101759.88
2023-05-24T17:49:30.432Z,101764.34
2023-05-24T17:52:00.866Z,101772.34
2023-05-24T17:54:28.682Z,101766.16
2023-05-24T17:56:56.798Z,101770.72
2023-05-24T17:59:24.236Z,101766.28
2023-05-24T18:01:51.856Z,101762.81
2023-05-24T18:04:19.958Z,101764.63
2023-05-24T18:06:47.403Z,101760.31
2023-05-24T18:09:16.283Z,101768.25
2023-05-24T18:11:43.810Z,101767.38
2023-05-24T18:14:11.618Z,101776.28
2023-05-24T18:16:39.228Z,101769.31
2023-05-24T18:19:06.973Z,101766.63
2023-05-24T18:21:34.541Z,101757.00
2023-05-24T18:24:02.062Z,101763.28
2023-05-24T18:26:29.438Z,101765.16
2023-05-24T18:28:56.951Z,101774.84
2023-05-24T18:31:24.538Z,101767.78
2023-05-24T18:33:52.152Z,101773.19
2023-05-24T18:36:19.664Z,101775.03
2023-05-24T18:38:47.497Z,101774.19
2023-05-24T18:41:16.562Z,101768.88
2023-05-24T18:43:44.280Z,101787.47
2023-05-24T18:46:15.159Z,101775.22
2023-05-24T18:48:43.285Z,101783.22
2023-05-24T18:51:11.677Z,101784.13
2023-05-24T18:53:40.199Z,101786.78
2023-05-24T18:56:07.666Z,101784.22
2023-05-24T18:58:35.164Z,101789.50
2023-05-24T19:01:02.762Z,101785.09
2023-05-24T19:03:30.615Z,101785.09
2023-05-24T19:05:58.077Z,101789.53
2023-05-24T19:08:25.647Z,101781.69
2023-05-24T19:10:53.106Z,101787.03
2023-05-24T19:13:20.780Z,101786.16
2023-05-24T19:15:48.454Z,101793.31
2023-05-24T19:18:16.006Z,101792.53
2023-05-24T19:20:43.543Z,101802.22
2023-05-24T19:23:11.108Z,101806.66
2023-05-24T19:25:42.167Z,101803.16
2023-05-24T19:28:11.202Z,101802.28
2023-05-24T19:30:38.685Z,101799.63
2023-05-24T19:33:07.501Z,101804.97
2023-05-24T19:35:35.240Z,101803.25
2023-05-24T19:38:02.879Z,101803.19
2023-05-24T19:40:30.503Z,101806.75
2023-05-24T19:42:58.085Z,101807.69
2023-05-24T19:45:25.793Z,101812.97
2023-05-24T19:47:53.353Z,101807.69
2023-05-24T19:50:20.824Z,101805.09
2023-05-24T19:52:48.296Z,101813.91
2023-05-24T19:55:15.752Z,101806.91
2023-05-24T19:57:43.319Z,101812.16
2023-05-24T20:00:12.504Z,101816.56
2023-05-24T20:02:40.166Z,101817.44
2023-05-24T20:05:09.054Z,101815.72
2023-05-24T20:07:36.851Z,101809.56
2023-05-24T20:10:05.624Z,101815.72
2023-05-24T20:12:34.726Z,101822.72
2023-05-24T20:15:02.772Z,101817.44
2023-05-24T20:17:30.367Z,101827.97
2023-05-24T20:19:57.898Z,101820.94
2023-05-24T20:22:25.488Z,101826.22
2023-05-24T20:24:52.904Z,101822.69
2023-05-24T20:27:20.514Z,101832.38
2023-05-24T20:29:48.422Z,101826.19
2023-05-24T20:32:16.453Z,101835.84
2023-05-24T20:34:43.920Z,101839.31
2023-05-24T20:37:11.490Z,101838.44
2023-05-24T20:39:38.935Z,101836.69
2023-05-24T20:42:08.278Z,101844.56
2023-05-24T20:44:35.928Z,101845.41
2023-05-24T20:47:03.536Z,101843.66
2023-05-24T20:49:31.026Z,101848.91
2023-05-24T20:51:58.619Z,101843.72
2023-05-24T20:54:26.213Z,101862.16
2023-05-24T20:56:53.722Z,101854.19
2023-05-24T20:59:21.194Z,101853.38
2023-05-24T21:01:48.862Z,101848.09
2023-05-24T21:04:16.412Z,101856.84
2023-05-24T21:06:43.941Z,101849.84
2023-05-24T21:09:11.642Z,101851.53
2023-05-24T21:11:39.577Z,101849.69
2023-05-24T21:14:07.009Z,101846.25
2023-05-24T21:16:34.736Z,101850.66
2023-05-24T21:19:02.407Z,101850.63
2023-05-24T21:21:29.958Z,101852.41
2023-05-24T21:23:57.964Z,101856.75
2023-05-24T21:26:35.018Z,101854.97
2023-05-24T21:29:05.688Z,101844.44
2023-05-24T21:31:37.700Z,101853.19
2023-05-24T21:34:06.440Z,101854.09
2023-05-24T21:36:33.919Z,101864.56
2023-05-24T21:39:03.980Z,101857.59
2023-05-24T21:41:31.470Z,101862.72
2023-05-24T21:43:58.961Z,101864.34
2023-05-24T21:46:29.233Z,101862.56
2023-05-24T21:48:59.551Z,101866.97
2023-05-24T21:51:27.191Z,101870.56
2023-05-24T21:53:54.753Z,101865.22
2023-05-24T21:56:22.628Z,101871.38
2023-05-24T21:58:50.117Z,101876.75
2023-05-24T22:01:17.793Z,101869.72
2023-05-24T22:03:45.366Z,101880.22
2023-05-24T22:06:13.055Z,101873.94
2023-05-24T22:08:40.696Z,101879.97
2023-05-24T22:11:08.230Z,101870.38
2023-05-24T22:13:35.722Z,101879.25
2023-05-24T22:16:03.383Z,101873.97
2023-05-24T22:18:30.882Z,101885.25
2023-05-24T22:20:58.459Z,101883.47
2023-05-24T22:23:26.612Z,101879.09
2023-05-24T22:25:54.454Z,101891.47
2023-05-24T22:28:21.961Z,101893.91
2023-05-24T22:30:49.577Z,101893.91
2023-05-24T22:33:17.106Z,101895.53
2023-05-24T22:35:44.796Z,101902.56
2023-05-24T22:38:12.711Z,101906.03
2023-05-24T22:40:42.268Z,101899.97
2023-05-24T22:43:09.877Z,101900.75
2023-05-24T22:45:37.465Z,101902.47
2023-05-24T22:48:05.076Z,101904.97
2023-05-24T22:50:32.782Z,101902.31
2023-05-24T22:53:00.239Z,101904.06
2023-05-24T22:55:27.839Z,101911.88
2023-05-24T22:57:55.269Z,101914.50
2023-05-24T23:00:22.991Z,101928.47
2023-05-24T23:02:50.587Z,101929.34
2023-05-24T23:05:21.640Z,101929.13
2023-05-24T23:07:49.536Z,101929.13
2023-05-24T23:10:17.039Z,101930.97
2023-05-24T23:12:44.677Z,101939.78
2023-05-24T23:15:16.853Z,101937.06
2023-05-24T23:17:44.767Z,101932.72
2023-05-24T23:20:14.703Z,101932.88
2023-05-24T23:22:42.348Z,101927.44
2023-05-24T23:25:10.409Z,101930.00
2023-05-24T23:27:38.043Z,101933.47
2023-05-24T23:30:06.972Z,101939.63
2023-05-24T23:32:34.496Z,101940.59
2023-05-24T23:35:01.915Z,101940.38
2023-05-24T23:37:29.400Z,101935.97
2023-05-24T23:40:02.231Z,101937.66
2023-05-24T23:42:30.065Z,101930.66
2023-05-24T23:44:57.585Z,101933.28
2023-05-24T23:47:25.546Z,101935.91
2023-05-24T23:49:53.057Z,101937.59
2023-05-24T23:52:20.742Z,101936.59
2023-05-24T23:54:48.335Z,101933.19
2023-05-24T23:57:15.861Z,101925.94
2023-05-24T23:59:43.729Z,101925.78
